Time,TemperatureF,DewpointF,PressureIn,WindDirection,WindDirectionDegrees,WindSpeedMPH,WindSpeedGustMPH,Humidity,HourlyPrecipIn,Conditions,Clouds,dailyrainin,SoftwareType,DateUTC
2013-08-14 00:00:00,75.1,71.0,29.85,SW,225,0.0,-999.0,87,0.00,,,0.00,Wunderground v.1.15,2013-08-14 04:00:00,
2013-08-14 00:05:00,75.1,71.0,29.85,SW,225,0.0,-999.0,87,0.00,,,0.00,Wunderground v.1.15,2013-08-14 04:05:00,
2013-08-14 00:10:00,75.1,71.0,29.85,SW,225,0.0,-999.0,87,0.00,,,0.00,Wunderground v.1.15,2013-08-14 04:10:00,
2013-08-14 00:15:00,75.1,71.0,29.85,SW,225,0.0,-999.0,87,0.00,,,0.00,Wunderground v.1.15,2013-08-14 04:15:00,
2013-08-14 00:20:00,75.1,71.0,29.85,SW,225,0.0,-999.0,87,0.00,,,0.00,Wunderground v.1.15,2013-08-14 04:20:00,
2013-08-14 00:25:00,75.1,71.0,29.85,SW,225,0.0,-999.0,87,0.00,,,0.00,Wunderground v.1.15,2013-08-14 04:25:00,
2013-08-14 00:30:00,75.1,71.0,29.85,SW,225,0.0,-999.0,87,0.00,,,0.00,Wunderground v.1.15,2013-08-14 04:30:00,
2013-08-14 00:35:00,75.1,71.0,29.85,SW,225,0.0,-999.0,87,0.00,,,0.00,Wunderground v.1.15,2013-08-14 04:35:00,
2013-08-14 00:40:00,75.1,71.0,29.85,SW,225,0.0,-999.0,87,0.00,,,0.00,Wunderground v.1.15,2013-08-14 04:40:00,
2013-08-14 00:45:00,75.2,70.7,29.84,N/A,-737280,0.0,-999.0,86,0.00,,,0.00,Wunderground v.1.15,2013-08-14 04:45:00,
2013-08-14 00:50:00,75.2,70.7,29.84,N/A,-737280,0.0,-999.0,86,0.00,,,0.00,Wunderground v.1.15,2013-08-14 04:50:00,
2013-08-14 00:55:00,75.2,70.7,29.84,N/A,-737280,0.0,-999.0,86,0.00,,,0.00,Wunderground v.1.15,2013-08-14 04:55:00,
2013-08-14 01:00:00,75.2,70.7,29.84,N/A,-737280,0.0,-999.0,86,0.00,,,0.00,Wunderground v.1.15,2013-08-14 05:00:00,
2013-08-14 01:05:00,75.2,70.7,29.84,N/A,-737280,0.0,-999.0,86,0.00,,,0.00,Wunderground v.1.15,2013-08-14 05:05:00,
2013-08-14 01:10:00,75.2,70.7,29.84,N/A,-737280,0.0,-999.0,86,0.00,,,0.00,Wunderground v.1.15,2013-08-14 05:10:00,
2013-08-14 01:15:00,75.2,70.0,29.85,N/A,-737280,0.0,-999.0,84,0.00,,,0.00,Wunderground v.1.15,2013-08-14 05:15:00,
2013-08-14 01:20:00,75.2,70.0,29.85,N/A,-737280,0.0,-999.0,84,0.00,,,0.00,Wunderground v.1.15,2013-08-14 05:20:00,
2013-08-14 01:25:00,75.2,70.0,29.85,N/A,-737280,0.0,-999.0,84,0.00,,,0.00,Wunderground v.1.15,2013-08-14 05:25:00,
2013-08-14 01:30:00,75.2,70.0,29.85,N/A,-737280,0.0,-999.0,84,0.00,,,0.00,Wunderground v.1.15,2013-08-14 05:30:00,
2013-08-14 01:35:00,75.2,70.0,29.85,N/A,-737280,0.0,-999.0,84,0.00,,,0.00,Wunderground v.1.15,2013-08-14 05:35:00,
2013-08-14 01:40:00,75.2,70.0,29.85,N/A,-737280,0.0,-999.0,84,0.00,,,0.00,Wunderground v.1.15,2013-08-14 05:40:00,
2013-08-14 01:45:00,75.3,69.8,29.85,N/A,-737280,0.0,-999.0,83,0.00,,,0.00,Wunderground v.1.15,2013-08-14 05:45:00,
2013-08-14 01:50:00,75.3,69.8,29.85,N/A,-737280,0.0,-999.0,83,0.00,,,0.00,Wunderground v.1.15,2013-08-14 05:50:00,
2013-08-14 01:55:00,75.3,69.8,29.85,N/A,-737280,0.0,-999.0,83,0.00,,,0.00,Wunderground v.1.15,2013-08-14 05:55:00,
2013-08-14 02:05:00,75.3,69.8,29.85,N/A,-737280,0.0,-999.0,83,0.00,,,0.00,Wunderground v.1.15,2013-08-14 06:05:00,
2013-08-14 02:10:00,75.3,69.8,29.85,N/A,-737280,0.0,-999.0,83,0.00,,,0.00,Wunderground v.1.15,2013-08-14 06:10:00,
2013-08-14 02:15:00,75.1,69.6,29.85,N/A,-737280,0.0,-999.0,83,0.00,,,0.00,Wunderground v.1.15,2013-08-14 06:15:00,
2013-08-14 02:20:00,75.1,69.6,29.85,N/A,-737280,0.0,-999.0,83,0.00,,,0.00,Wunderground v.1.15,2013-08-14 06:20:00,
2013-08-14 02:25:00,75.1,69.6,29.85,N/A,-737280,0.0,-999.0,83,0.00,,,0.00,Wunderground v.1.15,2013-08-14 06:25:00,
2013-08-14 02:30:00,75.1,69.6,29.85,N/A,-737280,0.0,-999.0,83,0.00,,,0.00,Wunderground v.1.15,2013-08-14 06:30:00,
2013-08-14 02:35:00,75.1,69.6,29.85,N/A,-737280,0.0,-999.0,83,0.00,,,0.00,Wunderground v.1.15,2013-08-14 06:35:00,
2013-08-14 02:40:00,75.1,69.6,29.85,N/A,-737280,0.0,-999.0,83,0.00,,,0.00,Wunderground v.1.15,2013-08-14 06:40:00,
2013-08-14 02:45:00,74.9,69.4,29.85,N/A,-737280,0.0,-999.0,83,0.00,,,0.00,Wunderground v.1.15,2013-08-14 06:45:00,
2013-08-14 02:50:00,74.9,69.4,29.85,N/A,-737280,0.0,-999.0,83,0.00,,,0.00,Wunderground v.1.15,2013-08-14 06:50:00,
2013-08-14 02:55:00,74.9,69.4,29.85,N/A,-737280,0.0,-999.0,83,0.00,,,0.00,Wunderground v.1.15,2013-08-14 06:55:00,
2013-08-14 03:00:00,74.9,69.4,29.85,N/A,-737280,0.0,-999.0,83,0.00,,,0.00,Wunderground v.1.15,2013-08-14 07:00:00,
2013-08-14 03:05:00,74.9,69.4,29.85,N/A,-737280,0.0,-999.0,83,0.00,,,0.00,Wunderground v.1.15,2013-08-14 07:05:00,
2013-08-14 03:10:00,74.9,69.4,29.85,N/A,-737280,0.0,-999.0,83,0.00,,,0.00,Wunderground v.1.15,2013-08-14 07:10:00,
2013-08-14 03:15:00,74.4,69.2,29.85,North,0,0.0,-999.0,84,0.00,,,0.00,Wunderground v.1.15,2013-08-14 07:15:00,
2013-08-14 03:20:00,74.4,69.2,29.85,North,0,0.0,-999.0,84,0.00,,,0.00,Wunderground v.1.15,2013-08-14 07:20:00,
2013-08-14 03:25:00,74.4,69.2,29.85,North,0,0.0,-999.0,84,0.00,,,0.00,Wunderground v.1.15,2013-08-14 07:25:00,
2013-08-14 03:30:00,74.4,69.2,29.85,North,0,0.0,-999.0,84,0.00,,,0.00,Wunderground v.1.15,2013-08-14 07:30:00,
2013-08-14 03:35:00,74.4,69.2,29.85,North,0,0.0,-999.0,84,0.00,,,0.00,Wunderground v.1.15,2013-08-14 07:35:00,
2013-08-14 03:40:00,74.4,69.2,29.85,North,0,0.0,-999.0,84,0.00,,,0.00,Wunderground v.1.15,2013-08-14 07:40:00,
2013-08-14 03:45:00,74.2,69.1,29.85,N/A,-737280,0.0,-999.0,84,0.00,,,0.00,Wunderground v.1.15,2013-08-14 07:45:00,
2013-08-14 03:50:00,74.2,69.1,29.85,N/A,-737280,0.0,-999.0,84,0.00,,,0.00,Wunderground v.1.15,2013-08-14 07:50:00,
2013-08-14 03:55:00,74.2,69.1,29.85,N/A,-737280,0.0,-999.0,84,0.00,,,0.00,Wunderground v.1.15,2013-08-14 07:55:00,
2013-08-14 04:00:00,74.2,69.1,29.85,N/A,-737280,0.0,-999.0,84,0.00,,,0.00,Wunderground v.1.15,2013-08-14 08:00:00,
2013-08-14 04:05:00,74.2,69.1,29.85,N/A,-737280,0.0,-999.0,84,0.00,,,0.00,Wunderground v.1.15,2013-08-14 08:05:00,
2013-08-14 04:10:00,74.2,69.1,29.85,N/A,-737280,0.0,-999.0,84,0.00,,,0.00,Wunderground v.1.15,2013-08-14 08:10:00,
2013-08-14 04:15:00,73.8,68.0,29.85,N/A,-737280,0.0,-999.0,82,0.00,,,0.00,Wunderground v.1.15,2013-08-14 08:15:00,
2013-08-14 04:20:00,73.8,68.0,29.85,N/A,-737280,0.0,-999.0,82,0.00,,,0.00,Wunderground v.1.15,2013-08-14 08:20:00,
2013-08-14 04:25:00,73.8,68.0,29.85,N/A,-737280,0.0,-999.0,82,0.00,,,0.00,Wunderground v.1.15,2013-08-14 08:25:00,
2013-08-14 04:30:00,73.8,68.0,29.85,N/A,-737280,0.0,-999.0,82,0.00,,,0.00,Wunderground v.1.15,2013-08-14 08:30:00,
2013-08-14 04:35:00,73.8,68.0,29.85,N/A,-737280,0.0,-999.0,82,0.00,,,0.00,Wunderground v.1.15,2013-08-14 08:35:00,
2013-08-14 04:40:00,73.8,68.0,29.85,N/A,-737280,0.0,-999.0,82,0.00,,,0.00,Wunderground v.1.15,2013-08-14 08:40:00,
2013-08-14 04:45:00,72.9,66.7,29.85,ESE,113,0.0,-999.0,81,0.00,,,0.00,Wunderground v.1.15,2013-08-14 08:45:00,
2013-08-14 04:50:00,72.9,66.7,29.85,ESE,113,0.0,-999.0,81,0.00,,,0.00,Wunderground v.1.15,2013-08-14 08:50:00,
2013-08-14 04:55:00,72.9,66.7,29.85,ESE,113,0.0,-999.0,81,0.00,,,0.00,Wunderground v.1.15,2013-08-14 08:55:00,
2013-08-14 05:00:00,72.9,66.7,29.85,ESE,113,0.0,-999.0,81,0.00,,,0.00,Wunderground v.1.15,2013-08-14 09:00:00,
2013-08-14 05:05:00,72.9,66.7,29.85,ESE,113,0.0,-999.0,81,0.00,,,0.00,Wunderground v.1.15,2013-08-14 09:05:00,
2013-08-14 05:10:00,72.9,66.7,29.85,ESE,113,0.0,-999.0,81,0.00,,,0.00,Wunderground v.1.15,2013-08-14 09:10:00,
2013-08-14 05:15:00,72.2,66.0,29.86,N/A,-737280,0.0,-999.0,81,0.00,,,0.00,Wunderground v.1.15,2013-08-14 09:15:00,
2013-08-14 05:20:00,72.2,66.0,29.86,N/A,-737280,0.0,-999.0,81,0.00,,,0.00,Wunderground v.1.15,2013-08-14 09:20:00,
2013-08-14 05:25:00,72.2,66.0,29.86,N/A,-737280,0.0,-999.0,81,0.00,,,0.00,Wunderground v.1.15,2013-08-14 09:25:00,
2013-08-14 05:30:00,72.2,66.0,29.86,N/A,-737280,0.0,-999.0,81,0.00,,,0.00,Wunderground v.1.15,2013-08-14 09:30:00,
2013-08-14 05:35:00,72.2,66.0,29.86,N/A,-737280,0.0,-999.0,81,0.00,,,0.00,Wunderground v.1.15,2013-08-14 09:35:00,
2013-08-14 05:40:00,72.2,66.0,29.86,N/A,-737280,0.0,-999.0,81,0.00,,,0.00,Wunderground v.1.15,2013-08-14 09:40:00,
2013-08-14 05:45:00,71.7,66.3,29.87,N/A,-737280,0.0,-999.0,83,0.00,,,0.00,Wunderground v.1.15,2013-08-14 09:45:00,
2013-08-14 05:50:00,71.7,66.3,29.87,N/A,-737280,0.0,-999.0,83,0.00,,,0.00,Wunderground v.1.15,2013-08-14 09:50:00,
2013-08-14 05:55:00,71.7,66.3,29.87,N/A,-737280,0.0,-999.0,83,0.00,,,0.00,Wunderground v.1.15,2013-08-14 09:55:00,
2013-08-14 06:00:00,71.7,66.3,29.87,N/A,-737280,0.0,-999.0,83,0.00,,,0.00,Wunderground v.1.15,2013-08-14 10:00:00,
2013-08-14 06:05:00,71.7,66.3,29.87,N/A,-737280,0.0,-999.0,83,0.00,,,0.00,Wunderground v.1.15,2013-08-14 10:05:00,
2013-08-14 06:10:00,71.7,66.3,29.87,N/A,-737280,0.0,-999.0,83,0.00,,,0.00,Wunderground v.1.15,2013-08-14 10:10:00,
2013-08-14 06:15:00,71.1,66.0,29.88,N/A,-737280,0.0,-999.0,84,0.00,,,0.00,Wunderground v.1.15,2013-08-14 10:15:00,
2013-08-14 06:20:00,71.1,66.0,29.88,N/A,-737280,0.0,-999.0,84,0.00,,,0.00,Wunderground v.1.15,2013-08-14 10:20:00,
2013-08-14 06:25:00,71.1,66.0,29.88,N/A,-737280,0.0,-999.0,84,0.00,,,0.00,Wunderground v.1.15,2013-08-14 10:25:00,
2013-08-14 06:30:00,71.1,66.0,29.88,N/A,-737280,0.0,-999.0,84,0.00,,,0.00,Wunderground v.1.15,2013-08-14 10:30:00,
2013-08-14 06:35:00,71.1,66.0,29.88,N/A,-737280,0.0,-999.0,84,0.00,,,0.00,Wunderground v.1.15,2013-08-14 10:35:00,
2013-08-14 06:40:00,71.1,66.0,29.88,N/A,-737280,0.0,-999.0,84,0.00,,,0.00,Wunderground v.1.15,2013-08-14 10:40:00,
2013-08-14 06:45:00,70.6,65.9,29.91,N/A,-737280,0.0,-999.0,85,0.00,,,0.00,Wunderground v.1.15,2013-08-14 10:45:00,
2013-08-14 06:50:00,70.6,65.9,29.91,N/A,-737280,0.0,-999.0,85,0.00,,,0.00,Wunderground v.1.15,2013-08-14 10:50:00,
2013-08-14 06:55:00,70.6,65.9,29.91,N/A,-737280,0.0,-999.0,85,0.00,,,0.00,Wunderground v.1.15,2013-08-14 10:55:00,
2013-08-14 07:00:00,70.6,65.9,29.91,N/A,-737280,0.0,-999.0,85,0.00,,,0.00,Wunderground v.1.15,2013-08-14 11:00:00,
2013-08-14 07:05:00,70.6,65.9,29.91,N/A,-737280,0.0,-999.0,85,0.00,,,0.00,Wunderground v.1.15,2013-08-14 11:05:00,
2013-08-14 07:10:00,70.6,65.9,29.91,N/A,-737280,0.0,-999.0,85,0.00,,,0.00,Wunderground v.1.15,2013-08-14 11:10:00,
2013-08-14 07:15:00,71.2,66.8,29.92,N/A,-737280,0.0,-999.0,86,0.00,,,0.00,Wunderground v.1.15,2013-08-14 11:15:00,
2013-08-14 07:20:00,71.2,66.8,29.92,N/A,-737280,0.0,-999.0,86,0.00,,,0.00,Wunderground v.1.15,2013-08-14 11:20:00,
2013-08-14 07:25:00,71.2,66.8,29.92,N/A,-737280,0.0,-999.0,86,0.00,,,0.00,Wunderground v.1.15,2013-08-14 11:25:00,
2013-08-14 07:30:00,71.2,66.8,29.92,N/A,-737280,0.0,-999.0,86,0.00,,,0.00,Wunderground v.1.15,2013-08-14 11:30:00,
2013-08-14 07:35:00,71.2,66.8,29.92,N/A,-737280,0.0,-999.0,86,0.00,,,0.00,Wunderground v.1.15,2013-08-14 11:35:00,
2013-08-14 07:40:00,71.2,66.8,29.92,N/A,-737280,0.0,-999.0,86,0.00,,,0.00,Wunderground v.1.15,2013-08-14 11:40:00,
2013-08-14 07:45:00,72.3,66.8,29.93,ENE,68,0.0,-999.0,83,0.00,,,0.00,Wunderground v.1.15,2013-08-14 11:45:00,
2013-08-14 07:50:00,72.3,66.8,29.93,ENE,68,0.0,-999.0,83,0.00,,,0.00,Wunderground v.1.15,2013-08-14 11:50:00,
2013-08-14 07:55:00,72.3,66.8,29.93,ENE,68,0.0,-999.0,83,0.00,,,0.00,Wunderground v.1.15,2013-08-14 11:55:00,
2013-08-14 08:00:00,72.3,66.8,29.93,ENE,68,0.0,-999.0,83,0.00,,,0.00,Wunderground v.1.15,2013-08-14 12:00:00,
2013-08-14 08:05:00,72.3,66.8,29.93,ENE,68,0.0,-999.0,83,0.00,,,0.00,Wunderground v.1.15,2013-08-14 12:05:00,
2013-08-14 08:10:00,72.3,66.8,29.93,ENE,68,0.0,-999.0,83,0.00,,,0.00,Wunderground v.1.15,2013-08-14 12:10:00,
2013-08-14 08:15:00,71.9,65.8,29.94,NNE,23,1.0,-999.0,81,0.00,,,0.00,Wunderground v.1.15,2013-08-14 12:15:00,
2013-08-14 08:20:00,71.9,65.8,29.94,NNE,23,1.0,-999.0,81,0.00,,,0.00,Wunderground v.1.15,2013-08-14 12:20:00,
2013-08-14 08:25:00,71.9,65.8,29.94,NNE,23,1.0,-999.0,81,0.00,,,0.00,Wunderground v.1.15,2013-08-14 12:25:00,
2013-08-14 08:30:00,71.9,65.8,29.94,NNE,23,1.0,-999.0,81,0.00,,,0.00,Wunderground v.1.15,2013-08-14 12:30:00,
2013-08-14 08:35:00,71.9,65.8,29.94,NNE,23,1.0,-999.0,81,0.00,,,0.00,Wunderground v.1.15,2013-08-14 12:35:00,
2013-08-14 08:40:00,71.9,65.8,29.94,NNE,23,1.0,-999.0,81,0.00,,,0.00,Wunderground v.1.15,2013-08-14 12:40:00,
2013-08-14 08:45:00,72.6,65.7,29.95,NNE,23,1.0,-999.0,79,0.00,,,0.00,Wunderground v.1.15,2013-08-14 12:45:00,
2013-08-14 08:50:00,72.6,65.7,29.95,NNE,23,1.0,-999.0,79,0.00,,,0.00,Wunderground v.1.15,2013-08-14 12:50:00,
2013-08-14 08:55:00,72.6,65.7,29.95,NNE,23,1.0,-999.0,79,0.00,,,0.00,Wunderground v.1.15,2013-08-14 12:55:00,
2013-08-14 09:00:00,72.6,65.7,29.95,NNE,23,1.0,-999.0,79,0.00,,,0.00,Wunderground v.1.15,2013-08-14 13:00:00,
2013-08-14 09:30:00,73.1,65.5,29.96,ENE,74,1.0,1.0,77,0.00,,,0.00,Wunderground v.1.15,2013-08-14 13:30:00,
2013-08-14 09:35:00,73.0,65.4,29.96,North,360,1.0,1.0,77,0.00,,,0.00,Wunderground v.1.15,2013-08-14 13:35:00,
2013-08-14 09:40:00,72.8,64.4,29.96,North,5,1.0,1.0,75,0.00,,,0.00,Wunderground v.1.15,2013-08-14 13:40:00,
2013-08-14 09:45:00,72.8,64.4,29.96,NNE,16,1.0,4.0,75,0.00,,,0.00,Wunderground v.1.15,2013-08-14 13:45:00,
2013-08-14 09:50:00,73.0,65.0,29.96,NNE,32,1.0,2.0,76,0.00,,,0.00,Wunderground v.1.15,2013-08-14 13:50:00,
2013-08-14 09:55:00,73.2,64.8,29.96,NNE,22,1.0,2.0,75,0.00,,,0.00,Wunderground v.1.15,2013-08-14 13:55:00,
2013-08-14 10:00:00,73.3,64.9,29.96,South,173,1.0,1.0,75,0.00,,,0.00,Wunderground v.1.15,2013-08-14 14:00:00,
2013-08-14 10:05:00,73.4,65.0,29.96,NW,316,1.0,6.0,75,0.00,,,0.00,Wunderground v.1.15,2013-08-14 14:05:00,
2013-08-14 10:10:00,73.5,64.7,29.96,NE,36,1.0,1.0,74,0.00,,,0.00,Wunderground v.1.15,2013-08-14 14:10:00,
2013-08-14 10:15:00,73.4,64.2,29.96,NNE,19,1.0,6.0,73,0.00,,,0.00,Wunderground v.1.15,2013-08-14 14:15:00,
2013-08-14 10:20:00,73.4,64.2,29.96,NW,321,1.0,1.0,73,0.00,,,0.00,Wunderground v.1.15,2013-08-14 14:20:00,
2013-08-14 10:25:00,73.5,64.3,29.96,NNW,329,1.0,4.0,73,0.00,,,0.00,Wunderground v.1.15,2013-08-14 14:25:00,
2013-08-14 10:30:00,73.3,64.1,29.97,ENE,61,1.0,1.0,73,0.00,,,0.00,Wunderground v.1.15,2013-08-14 14:30:00,
2013-08-14 10:35:00,73.3,63.7,29.97,NNE,15,1.0,3.0,72,0.00,,,0.00,Wunderground v.1.15,2013-08-14 14:35:00,
2013-08-14 10:40:00,73.3,64.1,29.97,NNE,20,1.0,1.0,73,0.00,,,0.00,Wunderground v.1.15,2013-08-14 14:40:00,
2013-08-14 10:45:00,73.3,63.7,29.97,NNE,30,1.0,2.0,72,0.00,,,0.00,Wunderground v.1.15,2013-08-14 14:45:00,
2013-08-14 10:50:00,73.2,64.0,29.97,NE,45,1.0,6.0,73,0.00,,,0.00,Wunderground v.1.15,2013-08-14 14:50:00,
2013-08-14 10:55:00,73.3,64.1,29.97,NNE,26,1.0,6.0,73,0.00,,,0.00,Wunderground v.1.15,2013-08-14 14:55:00,
2013-08-14 11:00:00,73.4,63.4,29.97,NNE,28,1.0,1.0,71,0.00,,,0.00,Wunderground v.1.15,2013-08-14 15:00:00,
2013-08-14 11:05:00,73.5,63.9,29.97,North,9,1.0,2.0,72,0.00,,,0.00,Wunderground v.1.15,2013-08-14 15:05:00,
2013-08-14 11:10:00,73.5,63.9,29.97,SE,139,1.0,1.0,72,0.00,,,0.00,Wunderground v.1.15,2013-08-14 15:10:00,
2013-08-14 11:15:00,74.5,64.1,29.98,NNE,23,1.0,-999.0,70,0.00,,,0.00,Wunderground v.1.15,2013-08-14 15:15:00,
2013-08-14 11:20:00,74.5,64.1,29.98,NNE,23,1.0,-999.0,70,0.00,,,0.00,Wunderground v.1.15,2013-08-14 15:20:00,
2013-08-14 11:25:00,74.5,64.1,29.98,NNE,23,1.0,-999.0,70,0.00,,,0.00,Wunderground v.1.15,2013-08-14 15:25:00,
2013-08-14 11:30:00,74.5,64.1,29.98,NNE,23,1.0,-999.0,70,0.00,,,0.00,Wunderground v.1.15,2013-08-14 15:30:00,
2013-08-14 11:35:00,74.5,64.1,29.98,NNE,23,1.0,-999.0,70,0.00,,,0.00,Wunderground v.1.15,2013-08-14 15:35:00,
2013-08-14 11:40:00,74.5,64.1,29.98,NNE,23,1.0,-999.0,70,0.00,,,0.00,Wunderground v.1.15,2013-08-14 15:40:00,
2013-08-14 11:45:00,75.7,65.2,29.98,NNE,23,1.0,-999.0,70,0.00,,,0.00,Wunderground v.1.15,2013-08-14 15:45:00,
2013-08-14 11:50:00,75.7,65.2,29.98,NNE,23,1.0,-999.0,70,0.00,,,0.00,Wunderground v.1.15,2013-08-14 15:50:00,
2013-08-14 11:55:00,75.7,65.2,29.98,NNE,23,1.0,-999.0,70,0.00,,,0.00,Wunderground v.1.15,2013-08-14 15:55:00,
2013-08-14 12:00:00,75.7,65.2,29.98,NNE,23,1.0,-999.0,70,0.00,,,0.00,Wunderground v.1.15,2013-08-14 16:00:00,
2013-08-14 12:05:00,75.7,65.2,29.98,NNE,23,1.0,-999.0,70,0.00,,,0.00,Wunderground v.1.15,2013-08-14 16:05:00,
2013-08-14 12:10:00,75.7,65.2,29.98,NNE,23,1.0,-999.0,70,0.00,,,0.00,Wunderground v.1.15,2013-08-14 16:10:00,
2013-08-14 12:15:00,76.0,64.7,29.98,NNE,23,1.0,-999.0,68,0.00,,,0.00,Wunderground v.1.15,2013-08-14 16:15:00,
2013-08-14 12:20:00,76.0,64.7,29.98,NNE,23,1.0,-999.0,68,0.00,,,0.00,Wunderground v.1.15,2013-08-14 16:20:00,
2013-08-14 12:25:00,76.0,64.7,29.98,NNE,23,1.0,-999.0,68,0.00,,,0.00,Wunderground v.1.15,2013-08-14 16:25:00,
2013-08-14 12:30:00,76.0,64.7,29.98,NNE,23,1.0,-999.0,68,0.00,,,0.00,Wunderground v.1.15,2013-08-14 16:30:00,
2013-08-14 12:35:00,76.0,64.7,29.98,NNE,23,1.0,-999.0,68,0.00,,,0.00,Wunderground v.1.15,2013-08-14 16:35:00,
2013-08-14 12:40:00,76.0,64.7,29.98,NNE,23,1.0,-999.0,68,0.00,,,0.00,Wunderground v.1.15,2013-08-14 16:40:00,
2013-08-14 12:45:00,76.6,64.8,29.99,NNE,23,1.0,-999.0,67,0.00,,,0.00,Wunderground v.1.15,2013-08-14 16:45:00,
2013-08-14 12:50:00,76.6,64.8,29.99,NNE,23,1.0,-999.0,67,0.00,,,0.00,Wunderground v.1.15,2013-08-14 16:50:00,
2013-08-14 12:55:00,76.6,64.8,29.99,NNE,23,1.0,-999.0,67,0.00,,,0.00,Wunderground v.1.15,2013-08-14 16:55:00,
2013-08-14 13:00:00,76.6,64.8,29.99,NNE,23,1.0,-999.0,67,0.00,,,0.00,Wunderground v.1.15,2013-08-14 17:00:00,
2013-08-14 13:05:00,76.6,64.8,29.99,NNE,23,1.0,-999.0,67,0.00,,,0.00,Wunderground v.1.15,2013-08-14 17:05:00,
2013-08-14 13:10:00,76.6,64.8,29.99,NNE,23,1.0,-999.0,67,0.00,,,0.00,Wunderground v.1.15,2013-08-14 17:10:00,
2013-08-14 13:15:00,76.6,63.5,29.99,NE,45,1.0,-999.0,64,0.00,,,0.00,Wunderground v.1.15,2013-08-14 17:15:00,
2013-08-14 13:20:00,76.6,63.5,29.99,NE,45,1.0,-999.0,64,0.00,,,0.00,Wunderground v.1.15,2013-08-14 17:20:00,
2013-08-14 13:25:00,76.6,63.5,29.99,NE,45,1.0,-999.0,64,0.00,,,0.00,Wunderground v.1.15,2013-08-14 17:25:00,
2013-08-14 13:30:00,76.6,63.5,29.99,NE,45,1.0,-999.0,64,0.00,,,0.00,Wunderground v.1.15,2013-08-14 17:30:00,
2013-08-14 13:35:00,76.6,63.5,29.99,NE,45,1.0,-999.0,64,0.00,,,0.00,Wunderground v.1.15,2013-08-14 17:35:00,
2013-08-14 13:40:00,76.6,63.5,29.99,NE,45,1.0,-999.0,64,0.00,,,0.00,Wunderground v.1.15,2013-08-14 17:40:00,
2013-08-14 13:45:00,78.4,65.2,29.98,NNE,23,1.0,-999.0,64,0.00,,,0.00,Wunderground v.1.15,2013-08-14 17:45:00,
2013-08-14 13:50:00,78.4,65.2,29.98,NNE,23,1.0,-999.0,64,0.00,,,0.00,Wunderground v.1.15,2013-08-14 17:50:00,
2013-08-14 13:55:00,78.4,65.2,29.98,NNE,23,1.0,-999.0,64,0.00,,,0.00,Wunderground v.1.15,2013-08-14 17:55:00,
2013-08-14 14:00:00,78.4,65.2,29.98,NNE,23,1.0,-999.0,64,0.00,,,0.00,Wunderground v.1.15,2013-08-14 18:00:00,
2013-08-14 14:05:00,78.4,65.2,29.98,NNE,23,1.0,-999.0,64,0.00,,,0.00,Wunderground v.1.15,2013-08-14 18:05:00,
2013-08-14 14:10:00,78.4,65.2,29.98,NNE,23,1.0,-999.0,64,0.00,,,0.00,Wunderground v.1.15,2013-08-14 18:10:00,
2013-08-14 14:15:00,78.8,64.2,29.97,NNE,23,1.0,-999.0,61,0.00,,,0.00,Wunderground v.1.15,2013-08-14 18:15:00,
2013-08-14 14:20:00,78.8,64.2,29.97,NNE,23,1.0,-999.0,61,0.00,,,0.00,Wunderground v.1.15,2013-08-14 18:20:00,
2013-08-14 14:25:00,78.8,64.2,29.97,NNE,23,1.0,-999.0,61,0.00,,,0.00,Wunderground v.1.15,2013-08-14 18:25:00,
2013-08-14 14:30:00,78.8,64.2,29.97,NNE,23,1.0,-999.0,61,0.00,,,0.00,Wunderground v.1.15,2013-08-14 18:30:00,
2013-08-14 14:35:00,78.8,64.2,29.97,NNE,23,1.0,-999.0,61,0.00,,,0.00,Wunderground v.1.15,2013-08-14 18:35:00,
2013-08-14 14:40:00,78.8,64.2,29.97,NNE,23,1.0,-999.0,61,0.00,,,0.00,Wunderground v.1.15,2013-08-14 18:40:00,
2013-08-14 14:45:00,78.9,63.8,29.97,ENE,68,1.0,-999.0,60,0.00,,,0.00,Wunderground v.1.15,2013-08-14 18:45:00,
2013-08-14 14:50:00,78.9,63.8,29.97,ENE,68,1.0,-999.0,60,0.00,,,0.00,Wunderground v.1.15,2013-08-14 18:50:00,
2013-08-14 14:55:00,78.9,63.8,29.97,ENE,68,1.0,-999.0,60,0.00,,,0.00,Wunderground v.1.15,2013-08-14 18:55:00,
2013-08-14 15:00:00,78.9,63.8,29.97,ENE,68,1.0,-999.0,60,0.00,,,0.00,Wunderground v.1.15,2013-08-14 19:00:00,
2013-08-14 15:05:00,78.9,63.8,29.97,ENE,68,1.0,-999.0,60,0.00,,,0.00,Wunderground v.1.15,2013-08-14 19:05:00,
2013-08-14 15:10:00,78.9,63.8,29.97,ENE,68,1.0,-999.0,60,0.00,,,0.00,Wunderground v.1.15,2013-08-14 19:10:00,
2013-08-14 15:15:00,79.6,63.5,29.96,SE,135,1.0,-999.0,58,0.00,,,0.00,Wunderground v.1.15,2013-08-14 19:15:00,
2013-08-14 15:20:00,79.6,63.5,29.96,SE,135,1.0,-999.0,58,0.00,,,0.00,Wunderground v.1.15,2013-08-14 19:20:00,
2013-08-14 15:25:00,79.6,63.5,29.96,SE,135,1.0,-999.0,58,0.00,,,0.00,Wunderground v.1.15,2013-08-14 19:25:00,
2013-08-14 15:30:00,79.6,63.5,29.96,SE,135,1.0,-999.0,58,0.00,,,0.00,Wunderground v.1.15,2013-08-14 19:30:00,
2013-08-14 15:35:00,79.6,63.5,29.96,SE,135,1.0,-999.0,58,0.00,,,0.00,Wunderground v.1.15,2013-08-14 19:35:00,
2013-08-14 15:40:00,79.6,63.5,29.96,SE,135,1.0,-999.0,58,0.00,,,0.00,Wunderground v.1.15,2013-08-14 19:40:00,
2013-08-14 15:45:00,80.7,63.5,29.96,NE,45,1.0,-999.0,56,0.00,,,0.00,Wunderground v.1.15,2013-08-14 19:45:00,
2013-08-14 15:50:00,80.7,63.5,29.96,NE,45,1.0,-999.0,56,0.00,,,0.00,Wunderground v.1.15,2013-08-14 19:50:00,
2013-08-14 15:55:00,80.7,63.5,29.96,NE,45,1.0,-999.0,56,0.00,,,0.00,Wunderground v.1.15,2013-08-14 19:55:00,
2013-08-14 16:00:00,80.7,63.5,29.96,NE,45,1.0,-999.0,56,0.00,,,0.00,Wunderground v.1.15,2013-08-14 20:00:00,
2013-08-14 16:05:00,80.7,63.5,29.96,NE,45,1.0,-999.0,56,0.00,,,0.00,Wunderground v.1.15,2013-08-14 20:05:00,
2013-08-14 16:10:00,80.7,63.5,29.96,NE,45,1.0,-999.0,56,0.00,,,0.00,Wunderground v.1.15,2013-08-14 20:10:00,
2013-08-14 16:15:00,80.2,62.6,29.96,NNE,23,1.0,-999.0,55,0.00,,,0.00,Wunderground v.1.15,2013-08-14 20:15:00,
2013-08-14 16:20:00,80.2,62.6,29.96,NNE,23,1.0,-999.0,55,0.00,,,0.00,Wunderground v.1.15,2013-08-14 20:20:00,
2013-08-14 16:25:00,80.2,62.6,29.96,NNE,23,1.0,-999.0,55,0.00,,,0.00,Wunderground v.1.15,2013-08-14 20:25:00,
2013-08-14 16:30:00,80.2,62.6,29.96,NNE,23,1.0,-999.0,55,0.00,,,0.00,Wunderground v.1.15,2013-08-14 20:30:00,
2013-08-14 16:35:00,80.2,62.6,29.96,NNE,23,1.0,-999.0,55,0.00,,,0.00,Wunderground v.1.15,2013-08-14 20:35:00,
2013-08-14 16:40:00,80.2,62.6,29.96,NNE,23,1.0,-999.0,55,0.00,,,0.00,Wunderground v.1.15,2013-08-14 20:40:00,
2013-08-14 16:45:00,80.8,62.6,29.96,NE,45,1.0,-999.0,54,0.00,,,0.00,Wunderground v.1.15,2013-08-14 20:45:00,
2013-08-14 16:50:00,80.8,62.6,29.96,NE,45,1.0,-999.0,54,0.00,,,0.00,Wunderground v.1.15,2013-08-14 20:50:00,
2013-08-14 16:55:00,80.8,62.6,29.96,NE,45,1.0,-999.0,54,0.00,,,0.00,Wunderground v.1.15,2013-08-14 20:55:00,
2013-08-14 17:00:00,80.8,62.6,29.96,NE,45,1.0,-999.0,54,0.00,,,0.00,Wunderground v.1.15,2013-08-14 21:00:00,
2013-08-14 17:05:00,80.8,62.6,29.96,NE,45,1.0,-999.0,54,0.00,,,0.00,Wunderground v.1.15,2013-08-14 21:05:00,
2013-08-14 17:10:00,80.8,62.6,29.96,NE,45,1.0,-999.0,54,0.00,,,0.00,Wunderground v.1.15,2013-08-14 21:10:00,
2013-08-14 17:15:00,78.4,60.9,29.97,NNE,23,1.0,-999.0,55,0.00,,,0.00,Wunderground v.1.15,2013-08-14 21:15:00,
2013-08-14 17:20:00,78.4,60.9,29.97,NNE,23,1.0,-999.0,55,0.00,,,0.00,Wunderground v.1.15,2013-08-14 21:20:00,
2013-08-14 17:25:00,78.4,60.9,29.97,NNE,23,1.0,-999.0,55,0.00,,,0.00,Wunderground v.1.15,2013-08-14 21:25:00,
2013-08-14 17:30:00,78.4,60.9,29.97,NNE,23,1.0,-999.0,55,0.00,,,0.00,Wunderground v.1.15,2013-08-14 21:30:00,
2013-08-14 17:35:00,78.4,60.9,29.97,NNE,23,1.0,-999.0,55,0.00,,,0.00,Wunderground v.1.15,2013-08-14 21:35:00,
2013-08-14 17:40:00,78.4,60.9,29.97,NNE,23,1.0,-999.0,55,0.00,,,0.00,Wunderground v.1.15,2013-08-14 21:40:00,
2013-08-14 17:45:00,77.5,61.1,29.97,ENE,68,1.0,-999.0,57,0.00,,,0.00,Wunderground v.1.15,2013-08-14 21:45:00,
2013-08-14 17:50:00,77.5,61.1,29.97,ENE,68,1.0,-999.0,57,0.00,,,0.00,Wunderground v.1.15,2013-08-14 21:50:00,
2013-08-14 17:55:00,77.5,61.1,29.97,ENE,68,1.0,-999.0,57,0.00,,,0.00,Wunderground v.1.15,2013-08-14 21:55:00,
2013-08-14 18:00:00,77.5,61.1,29.97,ENE,68,1.0,-999.0,57,0.00,,,0.00,Wunderground v.1.15,2013-08-14 22:00:00,
2013-08-14 18:05:00,77.5,61.1,29.97,ENE,68,1.0,-999.0,57,0.00,,,0.00,Wunderground v.1.15,2013-08-14 22:05:00,
2013-08-14 18:10:00,77.5,61.1,29.97,ENE,68,1.0,-999.0,57,0.00,,,0.00,Wunderground v.1.15,2013-08-14 22:10:00,
2013-08-14 18:15:00,76.6,62.1,29.97,NNE,23,0.0,-999.0,61,0.00,,,0.00,Wunderground v.1.15,2013-08-14 22:15:00,
2013-08-14 18:20:00,76.6,62.1,29.97,NNE,23,0.0,-999.0,61,0.00,,,0.00,Wunderground v.1.15,2013-08-14 22:20:00,
2013-08-14 18:25:00,76.6,62.1,29.97,NNE,23,0.0,-999.0,61,0.00,,,0.00,Wunderground v.1.15,2013-08-14 22:25:00,
2013-08-14 18:30:00,76.6,62.1,29.97,NNE,23,0.0,-999.0,61,0.00,,,0.00,Wunderground v.1.15,2013-08-14 22:30:00,
2013-08-14 18:35:00,76.6,62.1,29.97,NNE,23,0.0,-999.0,61,0.00,,,0.00,Wunderground v.1.15,2013-08-14 22:35:00,
2013-08-14 18:40:00,76.6,62.1,29.97,NNE,23,0.0,-999.0,61,0.00,,,0.00,Wunderground v.1.15,2013-08-14 22:40:00,
2013-08-14 18:45:00,75.5,62.0,29.97,ENE,68,0.0,-999.0,63,0.00,,,0.00,Wunderground v.1.15,2013-08-14 22:45:00,
2013-08-14 18:50:00,75.5,62.0,29.97,ENE,68,0.0,-999.0,63,0.00,,,0.00,Wunderground v.1.15,2013-08-14 22:50:00,
2013-08-14 18:55:00,75.5,62.0,29.97,ENE,68,0.0,-999.0,63,0.00,,,0.00,Wunderground v.1.15,2013-08-14 22:55:00,
2013-08-14 19:00:00,75.5,62.0,29.97,ENE,68,0.0,-999.0,63,0.00,,,0.00,Wunderground v.1.15,2013-08-14 23:00:00,
2013-08-14 19:05:00,75.5,62.0,29.97,ENE,68,0.0,-999.0,63,0.00,,,0.00,Wunderground v.1.15,2013-08-14 23:05:00,
2013-08-14 19:10:00,75.5,62.0,29.97,ENE,68,0.0,-999.0,63,0.00,,,0.00,Wunderground v.1.15,2013-08-14 23:10:00,
2013-08-14 19:15:00,74.7,63.4,29.99,ENE,68,1.0,-999.0,68,0.00,,,0.00,Wunderground v.1.15,2013-08-14 23:15:00,
2013-08-14 19:20:00,74.7,63.4,29.99,ENE,68,1.0,-999.0,68,0.00,,,0.00,Wunderground v.1.15,2013-08-14 23:20:00,
2013-08-14 19:25:00,74.7,63.4,29.99,ENE,68,1.0,-999.0,68,0.00,,,0.00,Wunderground v.1.15,2013-08-14 23:25:00,
2013-08-14 19:30:00,74.7,63.4,29.99,ENE,68,1.0,-999.0,68,0.00,,,0.00,Wunderground v.1.15,2013-08-14 23:30:00,
2013-08-14 19:35:00,74.7,63.4,29.99,ENE,68,1.0,-999.0,68,0.00,,,0.00,Wunderground v.1.15,2013-08-14 23:35:00,
2013-08-14 19:40:00,74.7,63.4,29.99,ENE,68,1.0,-999.0,68,0.00,,,0.00,Wunderground v.1.15,2013-08-14 23:40:00,
2013-08-14 19:45:00,73.4,61.8,30.00,NNE,23,1.0,-999.0,67,0.00,,,0.00,Wunderground v.1.15,2013-08-14 23:45:00,
2013-08-14 19:50:00,73.4,61.8,30.00,NNE,23,1.0,-999.0,67,0.00,,,0.00,Wunderground v.1.15,2013-08-14 23:50:00,
2013-08-14 19:55:00,73.4,61.8,30.00,NNE,23,1.0,-999.0,67,0.00,,,0.00,Wunderground v.1.15,2013-08-14 23:55:00,
2013-08-14 20:00:00,73.4,61.8,30.00,NNE,23,1.0,-999.0,67,0.00,,,0.00,Wunderground v.1.15,2013-08-15 00:00:00,
2013-08-14 20:05:00,73.4,61.8,30.00,NNE,23,1.0,-999.0,67,0.00,,,0.00,Wunderground v.1.15,2013-08-15 00:05:00,
2013-08-14 20:10:00,73.4,61.8,30.00,NNE,23,1.0,-999.0,67,0.00,,,0.00,Wunderground v.1.15,2013-08-15 00:10:00,
2013-08-14 20:15:00,72.7,61.9,30.00,NE,45,1.0,-999.0,69,0.00,,,0.00,Wunderground v.1.15,2013-08-15 00:15:00,
2013-08-14 20:20:00,72.7,61.9,30.00,NE,45,1.0,-999.0,69,0.00,,,0.00,Wunderground v.1.15,2013-08-15 00:20:00,
2013-08-14 20:25:00,72.7,61.9,30.00,NE,45,1.0,-999.0,69,0.00,,,0.00,Wunderground v.1.15,2013-08-15 00:25:00,
2013-08-14 20:30:00,72.7,61.9,30.00,NE,45,1.0,-999.0,69,0.00,,,0.00,Wunderground v.1.15,2013-08-15 00:30:00,
2013-08-14 20:35:00,72.7,61.9,30.00,NE,45,1.0,-999.0,69,0.00,,,0.00,Wunderground v.1.15,2013-08-15 00:35:00,
2013-08-14 20:40:00,72.7,61.9,30.00,NE,45,1.0,-999.0,69,0.00,,,0.00,Wunderground v.1.15,2013-08-15 00:40:00,
2013-08-14 20:45:00,71.9,61.2,30.01,East,90,0.0,-999.0,69,0.00,,,0.00,Wunderground v.1.15,2013-08-15 00:45:00,
2013-08-14 20:50:00,71.9,61.2,30.01,East,90,0.0,-999.0,69,0.00,,,0.00,Wunderground v.1.15,2013-08-15 00:50:00,
2013-08-14 20:55:00,71.9,61.2,30.01,East,90,0.0,-999.0,69,0.00,,,0.00,Wunderground v.1.15,2013-08-15 00:55:00,
2013-08-14 21:00:00,71.9,61.2,30.01,East,90,0.0,-999.0,69,0.00,,,0.00,Wunderground v.1.15,2013-08-15 01:00:00,
2013-08-14 21:05:00,71.9,61.2,30.01,East,90,0.0,-999.0,69,0.00,,,0.00,Wunderground v.1.15,2013-08-15 01:05:00,
2013-08-14 21:10:00,71.9,61.2,30.01,East,90,0.0,-999.0,69,0.00,,,0.00,Wunderground v.1.15,2013-08-15 01:10:00,
2013-08-14 21:15:00,71.3,61.0,30.02,NNE,23,0.0,-999.0,70,0.00,,,0.00,Wunderground v.1.15,2013-08-15 01:15:00,
2013-08-14 21:20:00,71.3,61.0,30.02,NNE,23,0.0,-999.0,70,0.00,,,0.00,Wunderground v.1.15,2013-08-15 01:20:00,
2013-08-14 21:25:00,71.3,61.0,30.02,NNE,23,0.0,-999.0,70,0.00,,,0.00,Wunderground v.1.15,2013-08-15 01:25:00,
2013-08-14 21:30:00,71.3,61.0,30.02,NNE,23,0.0,-999.0,70,0.00,,,0.00,Wunderground v.1.15,2013-08-15 01:30:00,
2013-08-14 21:35:00,71.3,61.0,30.02,NNE,23,0.0,-999.0,70,0.00,,,0.00,Wunderground v.1.15,2013-08-15 01:35:00,
2013-08-14 21:40:00,71.3,61.0,30.02,NNE,23,0.0,-999.0,70,0.00,,,0.00,Wunderground v.1.15,2013-08-15 01:40:00,
2013-08-14 21:45:00,71.1,62.4,30.03,NNE,23,0.0,-999.0,74,0.00,,,0.00,Wunderground v.1.15,2013-08-15 01:45:00,
2013-08-14 21:50:00,71.1,62.4,30.03,NNE,23,0.0,-999.0,74,0.00,,,0.00,Wunderground v.1.15,2013-08-15 01:50:00,
2013-08-14 21:55:00,71.1,62.4,30.03,NNE,23,0.0,-999.0,74,0.00,,,0.00,Wunderground v.1.15,2013-08-15 01:55:00,
2013-08-14 22:00:00,71.1,62.4,30.03,NNE,23,0.0,-999.0,74,0.00,,,0.00,Wunderground v.1.15,2013-08-15 02:00:00,
2013-08-14 22:05:00,71.1,62.4,30.03,NNE,23,0.0,-999.0,74,0.00,,,0.00,Wunderground v.1.15,2013-08-15 02:05:00,
2013-08-14 22:10:00,71.1,62.4,30.03,NNE,23,0.0,-999.0,74,0.00,,,0.00,Wunderground v.1.15,2013-08-15 02:10:00,
2013-08-14 22:15:00,70.0,62.5,30.04,NNE,23,0.0,-999.0,77,0.00,,,0.00,Wunderground v.1.15,2013-08-15 02:15:00,
2013-08-14 22:20:00,70.0,62.5,30.04,NNE,23,0.0,-999.0,77,0.00,,,0.00,Wunderground v.1.15,2013-08-15 02:20:00,
2013-08-14 22:25:00,70.0,62.5,30.04,NNE,23,0.0,-999.0,77,0.00,,,0.00,Wunderground v.1.15,2013-08-15 02:25:00,
2013-08-14 22:30:00,70.0,62.5,30.04,NNE,23,0.0,-999.0,77,0.00,,,0.00,Wunderground v.1.15,2013-08-15 02:30:00,
2013-08-14 22:35:00,70.0,62.5,30.04,NNE,23,0.0,-999.0,77,0.00,,,0.00,Wunderground v.1.15,2013-08-15 02:35:00,
2013-08-14 22:40:00,70.0,62.5,30.04,NNE,23,0.0,-999.0,77,0.00,,,0.00,Wunderground v.1.15,2013-08-15 02:40:00,
2013-08-14 22:45:00,69.2,62.0,30.05,NNE,23,0.0,-999.0,78,0.00,,,0.00,Wunderground v.1.15,2013-08-15 02:45:00,
2013-08-14 22:50:00,69.2,62.0,30.05,NNE,23,0.0,-999.0,78,0.00,,,0.00,Wunderground v.1.15,2013-08-15 02:50:00,
2013-08-14 22:55:00,69.2,62.0,30.05,NNE,23,0.0,-999.0,78,0.00,,,0.00,Wunderground v.1.15,2013-08-15 02:55:00,
2013-08-14 23:00:00,69.2,62.0,30.05,NNE,23,0.0,-999.0,78,0.00,,,0.00,Wunderground v.1.15,2013-08-15 03:00:00,
2013-08-14 23:05:00,69.2,62.0,30.05,NNE,23,0.0,-999.0,78,0.00,,,0.00,Wunderground v.1.15,2013-08-15 03:05:00,
2013-08-14 23:10:00,69.2,62.0,30.05,NNE,23,0.0,-999.0,78,0.00,,,0.00,Wunderground v.1.15,2013-08-15 03:10:00,
2013-08-14 23:15:00,68.6,61.5,30.06,ENE,68,0.0,-999.0,78,0.00,,,0.00,Wunderground v.1.15,2013-08-15 03:15:00,
2013-08-14 23:20:00,68.6,61.5,30.06,ENE,68,0.0,-999.0,78,0.00,,,0.00,Wunderground v.1.15,2013-08-15 03:20:00,
2013-08-14 23:25:00,68.6,61.5,30.06,ENE,68,0.0,-999.0,78,0.00,,,0.00,Wunderground v.1.15,2013-08-15 03:25:00,
2013-08-14 23:30:00,68.6,61.5,30.06,ENE,68,0.0,-999.0,78,0.00,,,0.00,Wunderground v.1.15,2013-08-15 03:30:00,
2013-08-14 23:35:00,68.6,61.5,30.06,ENE,68,0.0,-999.0,78,0.00,,,0.00,Wunderground v.1.15,2013-08-15 03:35:00,
2013-08-14 23:40:00,68.6,61.5,30.06,ENE,68,0.0,-999.0,78,0.00,,,0.00,Wunderground v.1.15,2013-08-15 03:40:00,
2013-08-14 23:45:00,68.2,61.1,30.06,ENE,68,0.0,-999.0,78,0.00,,,0.00,Wunderground v.1.15,2013-08-15 03:45:00,
2013-08-14 23:50:00,68.2,61.1,30.06,ENE,68,0.0,-999.0,78,0.00,,,0.00,Wunderground v.1.15,2013-08-15 03:50:00,
2013-08-14 23:55:00,68.2,61.1,30.06,ENE,68,0.0,-999.0,78,0.00,,,0.00,Wunderground v.1.15,2013-08-15 03:55:00,